createdAt,value
2023-04-03T00:04:38.034Z,3.32
2023-04-03T00:09:39.799Z,3.31
2023-04-03T00:14:41.515Z,3.26
2023-04-03T00:19:43.261Z,3.25
2023-04-03T00:24:44.980Z,3.24
2023-04-03T00:29:46.697Z,3.15
2023-04-03T00:34:48.535Z,3.17
2023-04-03T00:39:51.225Z,3.13
2023-04-03T00:44:59.068Z,3.14
2023-04-03T00:50:00.815Z,3.19
2023-04-03T00:55:06.969Z,3.16
2023-04-03T01:00:15.724Z,3.21
2023-04-03T01:05:20.404Z,3.17
2023-04-03T01:10:22.696Z,3.20
2023-04-03T01:15:28.941Z,3.22
2023-04-03T01:20:37.352Z,3.14
2023-04-03T01:26:08.328Z,3.17
2023-04-03T01:31:28.016Z,3.13
2023-04-03T01:36:32.122Z,3.16
2023-04-03T01:41:34.414Z,3.21
2023-04-03T01:46:43.479Z,3.24
2023-04-03T01:51:45.489Z,3.11
2023-04-03T01:56:47.282Z,3.15
2023-04-03T02:01:49.384Z,3.08
2023-04-03T02:06:51.170Z,3.01
2023-04-03T02:11:53.649Z,2.97
2023-04-03T02:16:55.654Z,3.00
2023-04-03T02:21:58.145Z,2.98
2023-04-03T02:27:00.465Z,2.93
2023-04-03T02:32:02.645Z,2.91
2023-04-03T02:37:04.953Z,2.84
2023-04-03T02:42:06.742Z,2.76
2023-04-03T02:47:09.215Z,2.72
2023-04-03T02:52:11.246Z,2.61
2023-04-03T02:57:13.598Z,2.43
2023-04-03T03:02:15.359Z,2.22
2023-04-03T03:07:17.216Z,1.92
2023-04-03T03:12:22.957Z,1.74
2023-04-03T03:17:25.562Z,1.57
2023-04-03T03:22:27.430Z,1.43
2023-04-03T03:27:29.294Z,1.31
2023-04-03T03:32:31.173Z,1.15
2023-04-03T03:37:33.096Z,1.10
2023-04-03T03:42:34.912Z,0.96
2023-04-03T03:47:38.151Z,0.93
2023-04-03T03:52:40.477Z,0.93
2023-04-03T03:57:42.464Z,0.78
2023-04-03T04:06:19.804Z,0.65
2023-04-03T04:11:22.987Z,0.66
2023-04-03T04:16:25.841Z,0.66
2023-04-03T04:21:29.458Z,0.59
2023-04-03T04:26:32.423Z,0.51
2023-04-03T04:31:34.393Z,0.45
2023-04-03T04:36:37.169Z,0.47
2023-04-03T04:41:40.294Z,0.52
2023-04-03T04:46:42.569Z,0.54
2023-04-03T04:51:51.976Z,0.53
2023-04-03T04:56:57.632Z,0.53
2023-04-03T05:02:00.177Z,0.56
2023-04-03T05:07:02.492Z,0.57
2023-04-03T05:12:05.384Z,0.65
2023-04-03T05:17:11.955Z,0.62
2023-04-03T05:22:16.696Z,0.62
2023-04-03T05:27:18.719Z,0.63
2023-04-03T05:32:24.356Z,0.69
2023-04-03T05:37:30.092Z,0.68
2023-04-03T05:42:33.567Z,0.69
2023-04-03T05:47:35.928Z,0.60
2023-04-03T05:52:44.289Z,0.66
2023-04-03T05:57:46.741Z,0.85
2023-04-03T06:02:48.906Z,1.03
2023-04-03T06:07:54.745Z,1.26
2023-04-03T06:12:56.571Z,1.38
2023-04-03T06:17:58.722Z,1.48
2023-04-03T06:23:01.252Z,1.52
2023-04-03T06:28:03.099Z,1.52
2023-04-03T06:33:04.838Z,1.57
2023-04-03T06:38:10.584Z,1.68
2023-04-03T06:43:12.362Z,1.77
2023-04-03T06:48:14.697Z,1.89
2023-04-03T06:53:16.814Z,2.07
2023-04-03T06:58:20.457Z,2.30
2023-04-03T07:03:23.473Z,2.71
2023-04-03T07:08:27.074Z,3.00
2023-04-03T07:13:29.090Z,3.26
2023-04-03T07:18:30.908Z,3.56
2023-04-03T07:23:32.753Z,3.78
2023-04-03T07:28:35.063Z,4.06
2023-04-03T07:33:38.162Z,4.40
2023-04-03T07:38:40.132Z,4.84
2023-04-03T07:43:43.227Z,5.01
2023-04-03T07:48:44.989Z,5.21
2023-04-03T07:53:47.099Z,5.17
2023-04-03T07:58:48.846Z,5.12
2023-04-03T08:03:52.140Z,5.32
2023-04-03T08:08:53.959Z,5.24
2023-04-03T08:13:57.067Z,5.24
2023-04-03T08:18:58.777Z,5.02
2023-04-03T08:24:00.494Z,4.56
2023-04-03T08:29:02.410Z,3.67
2023-04-03T08:34:04.164Z,3.64
2023-04-03T08:39:05.796Z,4.10
2023-04-03T08:44:26.177Z,4.32
2023-04-03T08:49:33.677Z,5.09
2023-04-03T08:54:52.063Z,5.37
2023-04-03T08:59:54.080Z,4.69
2023-04-03T09:04:56.667Z,4.26
2023-04-03T09:10:03.992Z,4.19
2023-04-03T09:15:37.927Z,4.22
2023-04-03T09:20:48.927Z,4.24
2023-04-03T09:25:54.549Z,4.47
2023-04-03T09:30:56.326Z,4.71
2023-04-03T09:35:58.050Z,5.34
2023-04-03T09:41:03.756Z,5.58
2023-04-03T09:46:27.572Z,5.89
2023-04-03T09:51:32.099Z,6.08
2023-04-03T09:56:35.591Z,5.98
2023-04-03T10:01:40.555Z,6.11
2023-04-03T10:06:47.878Z,6.40
2023-04-03T10:12:11.550Z,6.17
2023-04-03T10:17:20.768Z,6.13
2023-04-03T10:22:37.830Z,6.46
2023-04-03T10:27:48.050Z,6.72
2023-04-03T10:33:28.858Z,6.66
2023-04-03T10:39:25.996Z,6.47
2023-04-03T10:44:30.740Z,6.77
2023-04-03T10:49:39.081Z,6.82
2023-04-03T10:54:50.709Z,6.76
2023-04-03T11:00:02.720Z,7.04
2023-04-03T11:05:10.398Z,7.12
2023-04-03T11:10:42.898Z,7.36
2023-04-03T11:15:47.395Z,7.58
2023-04-03T11:21:15.654Z,7.88
2023-04-03T11:26:26.446Z,8.08
2023-04-03T11:32:02.928Z,8.04
2023-04-03T11:37:14.232Z,7.91
2023-04-03T11:42:26.955Z,7.46
2023-04-03T11:47:48.439Z,7.38
2023-04-03T11:52:50.564Z,7.68
2023-04-03T11:57:58.342Z,8.30
2023-04-03T12:03:00.406Z,7.51
2023-04-03T12:08:28.140Z,6.76
2023-04-03T12:13:29.946Z,6.95
2023-04-03T12:18:50.030Z,7.51
2023-04-03T12:24:17.914Z,8.02
2023-04-03T12:29:29.892Z,7.86
2023-04-03T12:35:06.504Z,7.57
2023-04-03T12:40:36.078Z,7.83
2023-04-03T12:46:11.025Z,7.93
2023-04-03T12:51:22.334Z,7.11
2023-04-03T12:56:32.040Z,6.97
2023-04-03T13:01:35.142Z,7.77
2023-04-03T13:06:42.822Z,7.93
2023-04-03T13:11:46.614Z,7.40
2023-04-03T13:17:00.165Z,7.08
2023-04-03T13:22:24.319Z,7.28
2023-04-03T13:27:27.387Z,7.61
2023-04-03T13:32:31.191Z,7.53
2023-04-03T13:37:34.532Z,7.17
2023-04-03T13:42:41.637Z,7.48
2023-04-03T13:47:47.334Z,7.73
2023-04-03T13:53:13.079Z,7.51
2023-04-03T13:58:14.714Z,7.08
2023-04-03T14:03:27.632Z,6.88
2023-04-03T14:08:41.759Z,7.67
2023-04-03T14:13:46.350Z,7.75
2023-04-03T14:18:52.422Z,7.21
2023-04-03T14:23:54.250Z,6.84
2023-04-03T14:28:56.901Z,6.55
2023-04-03T14:33:58.667Z,6.73
2023-04-03T14:39:01.949Z,6.80
2023-04-03T14:44:03.777Z,6.37
2023-04-03T14:49:15.491Z,5.96
2023-04-03T14:54:26.431Z,5.83
2023-04-03T14:59:30.072Z,5.85
2023-04-03T15:04:32.036Z,5.62
2023-04-03T15:09:36.841Z,5.38
2023-04-03T15:19:45.078Z,5.41
2023-04-03T15:24:48.007Z,5.36
2023-04-03T15:29:49.742Z,5.27
2023-04-03T15:34:54.943Z,5.12
2023-04-03T15:39:58.372Z,5.05
2023-04-03T15:45:00.291Z,5.00
2023-04-03T15:50:02.316Z,4.85
2023-04-03T15:55:05.581Z,4.70
2023-04-03T16:00:09.026Z,4.64
2023-04-03T16:05:11.838Z,4.57
2023-04-03T16:10:15.516Z,4.44
2023-04-03T16:15:17.436Z,4.29
2023-04-03T16:20:19.757Z,4.19
2023-04-03T16:25:21.742Z,4.07
2023-04-03T16:30:24.204Z,3.89
2023-04-03T16:35:25.933Z,3.88
2023-04-03T16:40:27.678Z,3.90
2023-04-03T16:45:29.364Z,3.83
2023-04-03T16:50:31.230Z,3.74
2023-04-03T16:55:33.111Z,3.66
2023-04-03T17:00:35.928Z,3.57
2023-04-03T17:05:38.249Z,3.45
2023-04-03T17:10:40.516Z,3.35
2023-04-03T17:15:42.780Z,3.24
2023-04-03T17:20:44.773Z,3.15
2023-04-03T17:25:46.487Z,3.08
2023-04-03T17:30:48.870Z,3.03
2023-04-03T17:35:51.131Z,2.98
2023-04-03T17:40:57.156Z,2.91
2023-04-03T17:46:08.983Z,2.85
2023-04-03T17:51:16.879Z,2.77
2023-04-03T17:56:22.864Z,2.71
2023-04-03T18:01:30.427Z,2.66
2023-04-03T18:06:48.208Z,2.63
2023-04-03T18:11:51.690Z,2.63
2023-04-03T18:16:53.665Z,2.60
2023-04-03T18:21:58.321Z,2.60
2023-04-03T18:27:04.901Z,2.59
2023-04-03T18:32:09.601Z,2.58
2023-04-03T18:37:11.315Z,2.53
2023-04-03T18:42:18.524Z,2.48
2023-04-03T18:47:20.552Z,2.47
2023-04-03T18:52:24.127Z,2.44
2023-04-03T18:57:28.699Z,2.42
2023-04-03T19:02:30.873Z,2.37
2023-04-03T19:07:33.359Z,2.36
2023-04-03T19:12:35.350Z,2.29
2023-04-03T19:17:37.121Z,2.31
2023-04-03T19:22:39.580Z,2.27
2023-04-03T19:27:41.911Z,2.26
2023-04-03T19:32:43.877Z,2.23
2023-04-03T19:37:50.697Z,2.18
2023-04-03T19:42:52.922Z,2.13
2023-04-03T19:47:54.719Z,2.09
2023-04-03T19:52:56.454Z,2.03
2023-04-03T19:57:59.484Z,2.00
2023-04-03T20:03:03.081Z,2.02
2023-04-03T20:08:05.086Z,1.99
2023-04-03T20:13:10.848Z,1.97
2023-04-03T20:18:18.228Z,1.93
2023-04-03T20:23:20.203Z,1.86
2023-04-03T20:28:23.113Z,2.01
2023-04-03T20:33:28.205Z,2.39
2023-04-03T20:38:29.952Z,2.59
2023-04-03T20:43:31.702Z,2.68
2023-04-03T20:48:33.339Z,2.71
2023-04-03T20:53:34.947Z,2.71
2023-04-03T20:58:41.240Z,2.73
2023-04-03T21:03:43.988Z,2.82
2023-04-03T21:09:24.728Z,2.81
2023-04-03T21:15:13.005Z,2.82
2023-04-03T21:20:14.804Z,2.78
2023-04-03T21:25:16.785Z,2.75
2023-04-03T21:30:18.702Z,2.69
2023-04-03T21:35:20.376Z,2.54
2023-04-03T21:40:23.200Z,2.40
2023-04-03T21:45:26.417Z,2.32
2023-04-03T21:50:37.164Z,2.21
2023-04-03T21:55:40.439Z,2.26
2023-04-03T22:00:42.714Z,2.26
2023-04-03T22:05:44.625Z,2.21
2023-04-03T22:10:46.895Z,2.15
2023-04-03T22:15:48.587Z,2.20
2023-04-03T22:20:50.676Z,2.20
2023-04-03T22:26:09.928Z,2.19
2023-04-03T22:31:16.195Z,2.18
2023-04-03T22:36:18.401Z,2.15
2023-04-03T22:41:20.055Z,2.11
2023-04-03T22:46:21.737Z,2.08
2023-04-03T22:51:23.417Z,2.07
2023-04-03T22:56:26.314Z,2.07
2023-04-03T23:01:29.349Z,2.05
2023-04-03T23:06:31.266Z,2.02
2023-04-03T23:11:34.969Z,1.97
2023-04-03T23:16:36.618Z,1.91
2023-04-03T23:21:39.437Z,1.83
2023-04-03T23:26:41.200Z,1.74
2023-04-03T23:31:42.909Z,1.66
2023-04-03T23:36:44.676Z,1.57
2023-04-03T23:41:49.011Z,1.53
2023-04-03T23:46:51.567Z,1.45
2023-04-03T23:51:56.845Z,1.41
2023-04-03T23:56:59.773Z,1.32
